Weather observations for the past three days for
Blair Municipal Airport
Metric (Imperial)
Date Time (cdt) Wind (kph) Vis. (km) Weather Sky Cond. Temperature (ºC) Relative Humidity Wind Chill (°C) Heat Index (°C) Pressure Precipitation (cm)
Air Dwpt 6 hour altimeter (cm) sea level (mb) 1 hr 3 hr 6 hr
Max. Min.
03 15:35 W 17 16.09 Fair CLR 22.7 -0.1 22% 75.77 0.0
03 15:15 NW 13 16.09 Fair CLR 22.8 1.5 25% 75.79 0.0
03 14:55 NW 15 G 26 16.09 Fair CLR 22.1 0.9 25% 75.79 0.0
03 14:35 NW 15 16.09 Fair CLR 21.7 1.1 26% 75.82 0.0
03 14:15 NW 9 G 26 16.09 Fair CLR 21.3 0.8 26% 75.84 0.0
03 13:55 NW 17 16.09 Fair CLR 21.7 0.7 25% 75.84 0.0
03 13:35 N 11 16.09 Fair CLR 21.3 1.3 27% 75.87 0.0
03 13:15 N 19 16.09 Fair CLR 20.7 0.6 26% 75.9 0.0
03 12:55 N 19 16.09 Fair CLR 20.4 0.8 21.1 11.8 27% 75.9 0.0
03 12:35 N 19 G 30 16.09 Fair CLR 21.1 1.5 27% 75.9 0.0
03 12:15 NW 17 G 28 16.09 Fair CLR 20 0.6 27% 75.92 0.0
03 11:55 NW 15 G 30 16.09 Fair CLR 20.3 1.5 29% 75.92 0.0
03 11:35 N 19 16.09 Fair CLR 20 1.6 30% 75.92 0.0
03 11:15 N 22 G 28 16.09 Fair CLR 19.3 0.7 29% 75.92 0.0
03 10:55 N 15 16.09 Fair CLR 18.6 2.2 34% 75.92 0.0
03 10:35 N 15 G 26 16.09 Fair CLR 18.3 2.4 35% 75.9 0.0
03 10:15 N 15 16.09 Fair CLR 17.5 2.5 37% 75.9 0.0
03 09:55 NW 11 16.09 Fair CLR 16.5 3 41% 75.9 0.0
03 09:35 NW 13 16.09 Fair CLR 15 2.3 43% 75.9 0.0
03 09:15 NW 11 16.09 Fair CLR 14.6 1.7 42% 75.84 0.0
03 08:55 NW 9 16.09 Fair CLR 14.4 1 40% 75.87 0.0
03 08:35 W 7 16.09 Fair CLR 14 0.8 41% 75.84 0.0
03 08:15 SW 11 16.09 Fair CLR 13.5 0.5 41% 75.84 0.0
03 07:55 SW 7 16.09 Fair CLR 13 0.2 42% 75.79 0.0
03 07:35 SW 17 16.09 Fair CLR 12 0.2 45% 75.82 0.0
03 07:15 SW 17 16.09 Fair CLR 12.1 -0.4 42% 75.79 0.0
03 06:55 SW 17 16.09 Fair CLR 12 -0.9 14.2 10.9 41% 75.79 0.0
03 06:35 SW 17 16.09 Fair CLR 11.9 -1.4 40% 75.79 0.0
03 06:15 SW 17 16.09 Fair CLR 11.6 -1.6 40% 75.77 0.0
03 05:35 W 13 16.09 Fair CLR 12 -1.6 39% 75.79 0.0
03 05:15 W 11 16.09 Fair CLR 11.7 -1 42% 75.84 0.0
03 04:55 W 15 16.09 Fair CLR 12.7 -1.4 38% 75.84 0.0
03 04:35 SW 20 16.09 Fair CLR 13 -1.5 37% 75.77 0.0
03 04:15 SW 24 G 35 16.09 Fair CLR 13 -1.6 37% 75.77 0.0
03 03:55 SW 20 G 33 16.09 Fair CLR 13.2 -1.9 35% 75.79 0.0
03 03:35 SW 26 G 35 16.09 Fair CLR 13.1 -2 35% 75.79 0.0
03 03:15 S 20 16.09 Fair CLR 13.2 -2.1 35% 75.79 0.0
03 02:55 S 24 16.09 Fair CLR 13.2 -2.1 35% 75.82 0.0
03 02:35 S 24 16.09 Fair CLR 13.4 -2.1 34% 75.82 0.0
03 02:15 S 24 16.09 Fair CLR 13.6 -2.3 33% 75.82 0.0
03 01:55 S 24 16.09 Fair CLR 13.7 -2.4 33% 75.84 0.0
03 01:35 S 28 16.09 Fair CLR 13.8 -2.5 33% 75.84 0.0
03 01:15 S 31 16.09 Fair CLR 14.1 -2.7 31% 75.87 0.0
03 00:55 S 26 16.09 Fair CLR 14 -2.9 19.3 12.8 31% 75.9 0.0
03 00:35 S 28 G 35 16.09 Fair CLR 14.1 -2.7 31% 75.9 0.0
03 00:15 S 30 16.09 Fair CLR 13.7 -2.4 33% 75.9 0.0
02 23:55 S 24 16.09 Fair CLR 13.5 -2.5 33% 75.92 0.0
02 23:35 S 20 16.09 Fair CLR 13.7 -2.6 32% 75.92 0.0
02 23:15 S 24 16.09 Fair CLR 14 -2.9 31% 75.95 0.0
02 22:55 S 22 16.09 Fair CLR 13.9 -2.9 31% 75.97 0.0
02 22:35 S 20 16.09 Fair CLR 14 -2.8 31% 76 0.0
02 22:15 S 19 16.09 Fair CLR 14.2 -2.7 31% 76 0.0
02 21:55 S 17 16.09 Fair CLR 14.3 -2.9 31% 76.02 0.0
02 21:35 S 15 16.09 Fair CLR 14.3 -2.9 31% 76.02 0.0
02 21:15 S 11 16.09 Fair CLR 12.9 -1.8 36% 76.05 0.0
02 20:55 S 7 16.09 Fair CLR 14.6 -3 30% 76.07 0.0
02 20:35 S 7 16.09 Fair CLR 16.3 -4.1 25% 76.1 0.0
02 20:15 S 6 16.09 Fair CLR 16.1 -3.2 27% 76.1 0.0
02 19:55 S 9 16.09 Fair CLR 17.2 -3.3 25% 76.1 0.0
02 19:35 S 11 16.09 Fair CLR 18.6 -4.5 21% 76.1 0.0
02 19:15 SW 15 16.09 Fair CLR 19.2 -5.5 18% 76.1 0.0
02 18:55 SW 13 16.09 Fair CLR 19.3 -7 19.7 15.2 16% 76.12 0.0
02 18:35 SW 15 16.09 Fair CLR 19.5 -6.1 17% 76.15 0.0
02 18:15 S 13 16.09 Fair CLR 19.5 -5.8 18% 76.17 0.0
02 17:55 S 15 16.09 Fair CLR 19.7 -5.6 18% 76.2 0.0
02 17:35 SW 17 16.09 Fair CLR 19.3 -5.3 19% 76.2 0.0
02 17:15 W 13 16.09 Fair CLR 19.3 -5.7 18% 76.23 0.0
02 16:55 SW 17 16.09 Fair CLR 18.9 -5.7 18% 76.25 0.0
02 16:35 SW 19 G 30 16.09 Fair CLR 18.8 -5.1 19% 76.28 0.0
02 16:15 W 13 16.09 Fair CLR 18.3 -5.7 19% 76.3 0.0
02 15:55 S 15 16.09 Fair CLR 18.5 -4.5 21% 76.33 0.0
02 15:35 W 13 G 28 16.09 Fair CLR 17.8 -5.8 20% 76.35 0.0
02 15:15 SW 11 G 26 16.09 Fair CLR 17.8 -5.2 21% 76.38 0.0
02 14:55 W 6 G 26 16.09 Fair CLR 17 -4.9 22% 76.4 0.0
02 14:35 SW 20 16.09 Fair CLR 17.2 -4.2 23% 76.43 0.0
02 14:15 S 15 G 26 16.09 Fair CLR 16.3 -4.8 23% 76.45 0.0
02 13:55 SW 17 G 30 16.09 Fair CLR 16.5 -4.3 24% 76.45 0.0
02 13:35 W 15 16.09 Fair CLR 15.9 -4.3 25% 76.5 0.0
02 13:15 SW 7 16.09 Fair CLR 15.6 -3.8 26% 76.53 0.0
02 12:55 SW 7 16.09 Fair CLR 15.6 -3.3 15.6 1.5 27% 76.53 0.0
02 12:35 Calm 16.09 Fair CLR 14.3 -4.1 28% 76.56 0.0
02 12:15 W 9 16.09 Fair CLR 14.6 -3.5 29% 76.56 0.0
02 11:55 W 17 16.09 Fair CLR 14.2 -3.3 30% 76.58 0.0
02 11:35 SW 7 16.09 Fair CLR 13.5 -3.4 31% 76.58 0.0
02 11:15 W 15 16.09 Fair CLR 12.8 -4.3 30% 76.61 0.0
02 10:55 W 11 16.09 Fair CLR 12.7 -4.1 31% 76.63 0.0
02 10:35 W 7 16.09 Fair CLR 12.1 -4.1 32% 76.63 0.0
02 10:15 SW 9 16.09 Fair CLR 11 -2.7 39% 76.63 0.0
02 09:50 W 6 16.09 Fair CLR 10.1 -2.2 42% 76.63 0.0
02 09:35 SW 9 16.09 Fair CLR 9.1 -1.5 48% 8 76.63 0.0
02 09:15 SW 7 16.09 Fair CLR 7.7 -1.7 52% 7 76.63 0.0
02 08:55 W 6 16.09 Fair CLR 6.6 -1.5 57% 76.63 0.0
02 08:35 W 7 16.09 Fair CLR 5.5 -2 59% 4 76.63 0.0
02 08:15 Calm 16.09 Fair CLR 5 -1.6 63% 76.63 0.0
02 07:55 Calm 16.09 Fair CLR 3.1 -2.4 68% 76.61 0.0
02 07:35 Calm 16.09 Fair CLR 2.2 -3.7 65% 76.61 0.0
02 07:15 Calm 16.09 Fair CLR 1.7 -4.5 64% 76.61 0.0
02 06:55 Calm 16.09 Fair CLR 1.5 -4.9 5.5 0.7 63% 76.61 0.0
02 06:35 Calm 16.09 Fair CLR 1.2 -5 64% 76.61 0.0
02 06:15 W 6 16.09 Fair CLR 1.1 -4.9 65% 76.61 0.0
02 05:55 Calm 16.09 Fair CLR 1.4 -5 63% 76.58 0.0
02 05:35 Calm 16.09 Fair CLR 2 -5.1 60% 76.58 0.0
02 05:15 NW 6 16.09 Fair CLR 3.1 -5.5 54% 76.58 0.0
02 04:55 Calm 16.09 Fair CLR 2.1 -4.7 61% 76.58 0.0
02 04:35 Calm 16.09 Fair CLR 3.1 -5.3 54% 76.58 0.0
02 04:15 Calm 16.09 Fair CLR 3.8 -5.5 51% 76.58 0.0
02 03:55 Calm 16.09 Fair CLR 3.2 -5.2 54% 76.56 0.0
02 03:35 Calm 16.09 Fair CLR 2.8 -5.1 56% 76.56 0.0
02 03:15 Calm 16.09 Fair CLR 3.8 -5.2 52% 76.56 0.0
02 02:55 Calm 16.09 Fair CLR 3.9 -5.2 52% 76.56 0.0
02 02:15 Calm 16.09 Fair CLR 5 -5.4 47% 76.58 0.0
02 01:55 Calm 16.09 Fair CLR 5 -5.4 47% 76.58 0.0
02 01:35 Calm 16.09 Fair CLR 5 -5.3 48% 76.58 0.0
02 01:15 Calm 16.09 Fair CLR 5.5 -5.4 46% 76.58 0.0
02 00:55 N 6 16.09 Fair CLR 5.3 -5.1 12.6 5.3 47% 76.56 0.0
02 00:35 N 6 16.09 Fair CLR 5.7 -5 46% 76.56 0.0
02 00:15 N 6 16.09 Fair CLR 7 -5.6 41% 76.56 0.0
01 23:55 Calm 16.09 Fair CLR 6 -5 46% 76.53 0.0
01 23:35 Calm 16.09 Fair CLR 7.3 -5.4 40% 76.53 0.0
01 23:15 N 6 16.09 Fair CLR 8.1 -5.8 37% 76.53 0.0
01 22:55 N 6 16.09 Fair CLR 8.1 -5.7 37% 76.53 0.0
01 22:35 Calm 16.09 Fair CLR 8.3 -6.1 36% 76.53 0.0
01 22:15 N 6 16.09 Fair CLR 8.5 -6.2 35% 76.53 0.0
01 21:55 N 6 16.09 Fair CLR 8.7 -6.2 35% 76.5 0.0
01 21:35 N 7 16.09 Fair CLR 8.8 -6.4 34% 8 76.5 0.0
01 21:15 N 6 16.09 Fair CLR 9.1 -6.5 33% 76.48 0.0
01 20:55 N 7 16.09 Fair CLR 9.2 -6.2 33% 8 76.45 0.0
01 20:35 N 11 16.09 Fair CLR 9.6 -5.9 33% 8 76.45 0.0
01 20:15 N 11 16.09 Fair CLR 10.1 -5.7 33% 76.43 0.0
01 19:55 N 9 16.09 Fair CLR 11 -5.8 31% 76.43 0.0
01 19:35 N 9 16.09 Fair CLR 11.7 -5.8 29% 76.4 0.0
01 19:15 N 20 16.09 Partly Cloudy SCT075 12.2 -6.3 27% 76.4 0.0
01 18:55 NW 17 G 26 16.09 Partly Cloudy SCT075 12.6 -6 13.9 11.5 27% 76.4 0.0
01 18:35 N 24 G 33 16.09 Fair CLR 12.2 -5.7 28% 76.4 0.0
01 18:15 NW 20 G 31 16.09 Partly Cloudy SCT075 13 -6.2 26% 76.4 0.0
01 17:55 NW 22 G 35 16.09 Partly Cloudy SCT075 13.2 -5.7 27% 76.4 0.0
01 17:35 N 26 G 35 16.09 Partly Cloudy SCT075 13.2 -6.6 25% 76.38 0.0
01 17:15 NW 26 G 33 16.09 Partly Cloudy SCT075 13.3 -6.1 26% 76.38 0.0
01 16:55 NW 17 G 31 16.09 Fair CLR 13.2 -6.1 26% 76.38 0.0
01 16:35 NW 30 G 37 16.09 Fair CLR 13.1 -6.6 25% 76.38 0.0
01 16:15 NW 17 G 37 16.09 Fair CLR 13.1 -5.8 27% 76.38 0.0
01 15:55 NW 15 16.09 Fair CLR 13.9 -4.2 28% 76.4 0.0
01 15:35 N 24 G 35 16.09 Fair CLR 13 -6.5 25% 76.4 0.0
01 15:15 N 15 G 35 16.09 Partly Cloudy SCT060 12.7 -5 29% 76.43 0.0
01 14:55 N 19 G 35 16.09 Partly Cloudy SCT060 12.5 -4.1 31% 76.43 0.0
01 14:35 N 20 G 37 16.09 Partly Cloudy SCT060 13.1 -3 33% 76.43 0.0
01 14:15 N 15 G 33 16.09 Partly Cloudy SCT060 13 -3.3 32% 76.43 0.0
01 13:55 NW 24 G 35 16.09 Partly Cloudy SCT060 11.7 -2.6 37% 76.43 0.0
01 13:35 N 22 G 30 16.09 Partly Cloudy SCT050 12.1 -1.9 38% 76.43 0.0
01 13:15 N 26 G 35 16.09 Mostly Cloudy BKN050 12.1 -1.6 39% 76.43 0.0
01 12:55 NW 22 G 33 16.09 Mostly Cloudy BKN048 12 -0.8 12.3 3.5 41% 76.43 0.0
01 12:35 N 15 G 31 16.09 Partly Cloudy SCT048 12 -0.5 42% 76.43 0.0
01 12:15 NW 17 G 33 16.09 Mostly Cloudy BKN045 BKN050 11.9 -0.2 44% 76.45 0.0
01 11:55 N 28 G 33 16.09 Mostly Cloudy BKN044 11.2 -0.1 46% 76.43 0.0
01 11:35 NW 22 G 33 16.09 Partly Cloudy SCT033 SCT039 10.8 0.6 50% 76.43 0.0
01 11:15 N 13 G 31 16.09 Mostly Cloudy BKN031 BKN039 10.2 1.6 55% 76.45 0.0
01 10:55 NW 17 G 30 16.09 Partly Cloudy SCT029 10.1 1.6 56% 76.43 0.0
01 10:35 NW 19 G 28 16.09 Partly Cloudy SCT027 9.6 1.6 58% 7 76.43 0.0
01 10:15 N 15 16.09 Fair CLR 9.3 1.8 60% 7 76.4 0.0
01 09:55 N 19 16.09 Fair CLR 8.5 1.4 61% 6 76.4 0.0
01 09:35 NW 13 16.09 Fair CLR 7.7 1.2 64% 6 76.4 0.0
01 09:15 NW 13 16.09 Fair CLR 6.7 0.8 66% 4 76.4 0.0
01 08:55 NW 13 16.09 Fair CLR 6.1 0.4 67% 4 76.4 0.0
01 08:35 NW 15 16.09 Fair CLR 5.7 0.2 68% 3 76.4 0.0
01 08:15 NW 20 16.09 Fair CLR 5.4 0 68% 2 76.38 0.0
01 07:55 NW 19 16.09 Fair CLR 5.1 -0.3 68% 2 76.38 0.0
01 07:35 NW 7 16.09 Fair CLR 4.1 -0.2 74% 3 76.38 0.0
01 07:15 W 11 16.09 Fair CLR 4.1 -1 70% 2 76.35 0.0
01 06:55 W 11 16.09 Fair CLR 3.6 -1 5.2 3 72% 1 76.35 0.0
01 06:35 W 11 16.09 Fair CLR 3.6 -1 72% 1 76.35 0.0
01 06:15 W 9 16.09 Partly Cloudy SCT080 3.9 -1.2 70% 2 76.33 0.0
01 05:55 W 7 16.09 Mostly Cloudy BKN080 4.2 -1.2 68% 3 76.33 0.0
01 05:35 W 11 16.09 Partly Cloudy SCT080 4.1 -1.5 67% 2 76.35 0.0
01 05:15 W 9 16.09 Partly Cloudy SCT090 4.7 -1.6 64% 3 76.35 0.0
01 04:55 W 9 16.09 Partly Cloudy SCT090 5.2 -1.7 61% 3 76.33 0.0
01 04:35 W 7 16.09 Overcast SCT075 OVC090 5.2 -1.7 61% 4 76.33 0.0
01 04:15 W 7 16.09 Overcast SCT075 OVC090 4.8 -1.1 66% 3 76.33 0.0
01 03:55 SW 6 16.09 Mostly Cloudy BKN090 4.6 -1.8 64% 76.35 0.0
01 03:35 SW 7 16.09 Fair CLR 4.8 -2.1 61% 3 76.33 0.0
01 03:15 SW 9 16.09 Fair CLR 5 -2.1 60% 3 76.33 0.0
01 02:55 SW 9 16.09 Partly Cloudy SCT090 4.6 -1.9 63% 3 76.35 0.0
01 02:35 SW 9 16.09 Partly Cloudy SCT090 4.5 -1.9 64% 3 76.35 0.0
01 02:15 SW 9 16.09 Fair CLR 4 -2 65% 2 76.38 0.0
01 01:55 SW 7 16.09 Fair CLR 3.2 -1.5 72% 2 76.38 0.0
01 01:35 S 7 16.09 Partly Cloudy SCT085 4 -1.5 68% 2 76.4 0.0
01 01:15 S 7 16.09 Mostly Cloudy BKN085 4.9 -2.1 61% 3 76.4 0.0
01 00:55 Calm 16.09 Overcast SCT085 OVC100 5 -2.2 11.5 4.4 60% 76.4 0.0
01 00:35 S 6 16.09 Mostly Cloudy BKN100 4.8 -2.6 59% 76.4 0.0
01 00:15 Calm 16.09 Fair CLR 5.4 -3.1 55% 76.4 0.0
30 23:55 Calm 16.09 Fair CLR 5.3 -3 55% 76.4 0.0
30 23:35 Calm 16.09 Fair CLR 5.4 -3.5 53% 76.43 0.0
30 23:15 Calm 16.09 Fair CLR 4.5 -2.7 60% 76.43 0.0
30 22:55 Calm 16.09 Fair CLR 7.1 -4.5 44% 76.43 0.0
30 22:35 Calm 16.09 Fair CLR 7.6 -4.8 41% 76.45 0.0
30 22:15 Calm 16.09 Fair CLR 7 -4.2 45% 76.45 0.0
30 21:55 Calm 16.09 Fair CLR 8 -4.7 41% 76.45 0.0
30 21:35 Calm 16.09 Fair CLR 8.3 -4.7 40% 76.43 0.0
30 21:15 Calm 16.09 Fair CLR 8.7 -4.6 39% 76.4 0.0
30 20:55 N 6 16.09 Fair CLR 9.3 -5 36% 76.43 0.0
30 20:35 N 7 16.09 Fair CLR 9.1 -4.3 39% 8 76.4 0.0
30 20:15 N 7 16.09 Fair CLR 9.7 -4.2 38% 9 76.4 0.0
30 19:55 N 17 16.09 Fair CLR 10.6 -4.6 34% 76.4 0.0
30 19:35 NW 19 16.09 Fair CLR 11.3 -3.8 35% 76.4 0.0
30 19:15 NW 13 16.09 Fair CLR 10.6 -3.7 37% 76.38 0.0
30 18:55 NW 20 G 31 16.09 Partly Cloudy SCT065 SCT090 11.6 -4.1 13.5 11.1 33% 76.38 0.0
30 18:35 NW 13 16.09 Overcast BKN065 OVC090 12.1 -3.5 34% 76.38 0.0
30 18:15 NW 22 G 30 16.09 Overcast BKN065 OVC090 11.8 -3.5 34% 76.38 0.0
30 17:55 N 20 G 30 16.09 Mostly Cloudy SCT070 BKN075 BKN090 11.8 -3.2 35% 76.38 0.0
30 17:35 N 20 16.09 Overcast SCT070 OVC090 12.2 -2.3 37% 76.38 0.0
30 17:15 NW 22 G 31 16.09 Mostly Cloudy BKN090 11.9 -3 36% 76.38 0.0
30 16:55 N 22 G 31 16.09 Overcast SCT065 SCT075 OVC090 13.2 -2.6 34% 76.38 0.0
30 16:35 N 19 G 31 16.09 Overcast SCT065 BKN075 OVC090 12.5 -2.5 35% 76.38 0.0
30 16:15 NW 19 G 31 16.09 Overcast SCT060 SCT070 OVC090 13.1 -1.7 36% 76.4 0.0
30 15:55 NW 19 G 31 16.09 Overcast BKN060 BKN070 OVC080 12.4 -1.8 38% 76.4 0.0
Date Time (cdt) Wind (kph) Vis. (km) Weather Sky Cond. Air Dwpt Max. Min. Relative Humidity Wind Chill (°C) Heat Index (°C) altimeter (cm) sea level (mb) 1 hr 3 hr 6 hr
6 hour
Temperature (ºC) Pressure Precipitation (cm)